Main page
METAR-TAF:

METAR-TAF

Airports :

Norwich Airport

Norwich, England

latitude: 52-38N, longitude: 001-18E, elevation: 14 m

Current weather observation

The report was made 31 minutes ago, at 20:50 UTC
Wind 18 kt from the South with gusts up to 29 kt, varying between South/Southeast and Southwest
Temperature 19°C
Humidity 73%
Pressure 1001 hPa
Visibility 10 km or more

METAR: EGSH 202050Z AUTO 19018G29KT 160V220 9999 NCD 19/14 Q1001

Time: 22:21 (21:21 UTC)

Forecast

The report was made 1 hour and 23 minutes ago, at 19:58 UTC
Forecast valid from 20 at 21 UTC to 20 at 24 UTC
Wind 18 kt from the South/Southwest with gusts up to 28 kt
Visibility 10 km or more
Broken clouds at a height of 2000 ft
Becoming
from 20 at 21 UTC to 20 at 24 UTC
Wind 26 kt from the South with gusts up to 38 kt
Visibility: 8000 m
light rain
Probability 40% :
Temporary
from 20 at 22 UTC to 20 at 24 UTC
Visibility: 4000 m
rain

TAF: EGSH 201958Z 2021/2024 20018G28KT 9999 BKN020 BECMG 2021/2024 19026G38KT 8000 -RA PROB40 TEMPO 2022/2024 4000 RA

Weather observations and forecasts of more than 4000 airports (METAR and TAF reports).

The available stations are represented by yellow and red dots on the map.

Hover mouse over dot to see the name of the station.

Then click to see weather observations and forecasts.

To change the map : click on the green buttons with a black cross to zoom in, on the green button with a dash to zoom out, or on the green arrows for adjacent maps.


METAR-TAF: